sensor_id;sensor_type;location;lat;lon;timestamp;P1;durP1;ratioP1;P2;durP2;ratioP2
74528;SDS011;63009;52.584;5.932;2022-12-18T00:01:47;49.72;;;15.98;;
74528;SDS011;63009;52.584;5.932;2022-12-18T00:04:23;49.67;;;17.20;;
74528;SDS011;63009;52.584;5.932;2022-12-18T00:06:49;48.67;;;17.65;;
74528;SDS011;63009;52.584;5.932;2022-12-18T00:09:15;55.30;;;18.50;;
74528;SDS011;63009;52.584;5.932;2022-12-18T00:11:40;48.92;;;17.48;;
74528;SDS011;63009;52.584;5.932;2022-12-18T00:14:06;49.60;;;18.48;;
74528;SDS011;63009;52.584;5.932;2022-12-18T00:16:31;50.70;;;15.57;;
74528;SDS011;63009;52.584;5.932;2022-12-18T00:18:58;45.83;;;17.15;;
74528;SDS011;63009;52.584;5.932;2022-12-18T00:21:24;47.28;;;17.88;;
74528;SDS011;63009;52.584;5.932;2022-12-18T00:23:50;47.20;;;16.55;;
74528;SDS011;63009;52.584;5.932;2022-12-18T00:26:17;52.03;;;18.30;;
74528;SDS011;63009;52.584;5.932;2022-12-18T00:28:47;55.10;;;17.42;;
74528;SDS011;63009;52.584;5.932;2022-12-18T00:31:14;50.28;;;17.63;;
74528;SDS011;63009;52.584;5.932;2022-12-18T00:33:42;50.15;;;17.38;;
74528;SDS011;63009;52.584;5.932;2022-12-18T00:36:09;49.88;;;17.02;;
74528;SDS011;63009;52.584;5.932;2022-12-18T00:38:39;49.40;;;17.10;;
74528;SDS011;63009;52.584;5.932;2022-12-18T00:41:05;50.50;;;15.88;;
74528;SDS011;63009;52.584;5.932;2022-12-18T00:43:31;47.67;;;14.73;;
74528;SDS011;63009;52.584;5.932;2022-12-18T00:45:56;40.63;;;15.53;;
74528;SDS011;63009;52.584;5.932;2022-12-18T00:48:22;41.40;;;15.47;;
74528;SDS011;63009;52.584;5.932;2022-12-18T00:50:48;46.03;;;15.05;;
74528;SDS011;63009;52.584;5.932;2022-12-18T00:53:15;46.17;;;15.77;;
74528;SDS011;63009;52.584;5.932;2022-12-18T00:55:41;38.05;;;13.05;;
74528;SDS011;63009;52.584;5.932;2022-12-18T00:58:07;44.45;;;15.82;;
74528;SDS011;63009;52.584;5.932;2022-12-18T01:00:34;44.20;;;15.52;;
74528;SDS011;63009;52.584;5.932;2022-12-18T01:02:59;40.40;;;15.25;;
74528;SDS011;63009;52.584;5.932;2022-12-18T01:05:24;39.90;;;13.63;;
74528;SDS011;63009;52.584;5.932;2022-12-18T01:07:50;46.30;;;15.48;;
74528;SDS011;63009;52.584;5.932;2022-12-18T01:10:15;42.73;;;16.17;;
74528;SDS011;63009;52.584;5.932;2022-12-18T01:12:41;42.80;;;15.65;;
74528;SDS011;63009;52.584;5.932;2022-12-18T01:15:06;46.60;;;15.43;;
74528;SDS011;63009;52.584;5.932;2022-12-18T01:17:33;45.35;;;16.27;;
74528;SDS011;63009;52.584;5.932;2022-12-18T01:19:58;43.45;;;15.18;;
74528;SDS011;63009;52.584;5.932;2022-12-18T01:22:24;43.97;;;15.20;;
74528;SDS011;63009;52.584;5.932;2022-12-18T01:24:49;41.38;;;16.23;;
74528;SDS011;63009;52.584;5.932;2022-12-18T01:27:15;39.90;;;15.95;;
74528;SDS011;63009;52.584;5.932;2022-12-18T01:29:40;42.60;;;14.97;;
74528;SDS011;63009;52.584;5.932;2022-12-18T01:32:05;43.23;;;14.23;;
74528;SDS011;63009;52.584;5.932;2022-12-18T01:34:30;47.27;;;16.33;;
74528;SDS011;63009;52.584;5.932;2022-12-18T01:36:56;40.73;;;13.40;;
74528;SDS011;63009;52.584;5.932;2022-12-18T01:39:21;43.28;;;15.32;;
74528;SDS011;63009;52.584;5.932;2022-12-18T01:41:47;41.95;;;16.20;;
74528;SDS011;63009;52.584;5.932;2022-12-18T01:47:18;44.53;;;15.25;;
74528;SDS011;63009;52.584;5.932;2022-12-18T01:49:47;51.95;;;15.43;;
74528;SDS011;63009;52.584;5.932;2022-12-18T01:52:12;52.47;;;16.00;;
74528;SDS011;63009;52.584;5.932;2022-12-18T01:54:40;48.50;;;17.40;;
74528;SDS011;63009;52.584;5.932;2022-12-18T01:57:05;52.88;;;17.70;;
74528;SDS011;63009;52.584;5.932;2022-12-18T01:59:31;46.70;;;15.93;;
74528;SDS011;63009;52.584;5.932;2022-12-18T02:01:58;46.33;;;17.85;;
74528;SDS011;63009;52.584;5.932;2022-12-18T02:04:25;49.42;;;15.35;;
74528;SDS011;63009;52.584;5.932;2022-12-18T02:06:55;42.00;;;16.02;;
74528;SDS011;63009;52.584;5.932;2022-12-18T02:09:30;47.58;;;16.45;;
74528;SDS011;63009;52.584;5.932;2022-12-18T02:12:10;38.28;;;14.90;;
74528;SDS011;63009;52.584;5.932;2022-12-18T02:15:06;40.35;;;15.57;;
74528;SDS011;63009;52.584;5.932;2022-12-18T02:17:35;44.75;;;17.80;;
74528;SDS011;63009;52.584;5.932;2022-12-18T02:20:14;45.70;;;17.90;;
74528;SDS011;63009;52.584;5.932;2022-12-18T02:22:54;42.97;;;16.58;;
74528;SDS011;63009;52.584;5.932;2022-12-18T02:28:09;43.88;;;16.98;;
74528;SDS011;63009;52.584;5.932;2022-12-18T02:30:39;38.95;;;15.30;;
74528;SDS011;63009;52.584;5.932;2022-12-18T02:33:07;43.30;;;16.30;;
74528;SDS011;63009;52.584;5.932;2022-12-18T02:35:35;41.83;;;15.43;;
74528;SDS011;63009;52.584;5.932;2022-12-18T02:38:03;42.28;;;15.93;;
74528;SDS011;63009;52.584;5.932;2022-12-18T02:40:29;44.03;;;14.73;;
74528;SDS011;63009;52.584;5.932;2022-12-18T02:43:02;40.67;;;15.85;;
74528;SDS011;63009;52.584;5.932;2022-12-18T02:45:31;37.70;;;15.20;;
74528;SDS011;63009;52.584;5.932;2022-12-18T02:47:57;45.92;;;17.38;;
74528;SDS011;63009;52.584;5.932;2022-12-18T02:50:26;37.90;;;15.40;;
74528;SDS011;63009;52.584;5.932;2022-12-18T02:58:33;41.13;;;15.48;;
74528;SDS011;63009;52.584;5.932;2022-12-18T03:03:34;45.53;;;15.43;;
74528;SDS011;63009;52.584;5.932;2022-12-18T03:06:10;37.13;;;14.50;;
74528;SDS011;63009;52.584;5.932;2022-12-18T03:08:44;37.50;;;15.70;;
74528;SDS011;63009;52.584;5.932;2022-12-18T03:11:13;36.50;;;14.95;;
74528;SDS011;63009;52.584;5.932;2022-12-18T03:13:41;40.70;;;15.85;;
74528;SDS011;63009;52.584;5.932;2022-12-18T03:16:12;38.03;;;14.18;;
74528;SDS011;63009;52.584;5.932;2022-12-18T03:18:45;40.60;;;15.40;;
74528;SDS011;63009;52.584;5.932;2022-12-18T03:21:14;39.00;;;14.68;;
74528;SDS011;63009;52.584;5.932;2022-12-18T03:23:44;41.30;;;15.15;;
74528;SDS011;63009;52.584;5.932;2022-12-18T03:26:14;40.20;;;15.07;;
74528;SDS011;63009;52.584;5.932;2022-12-18T03:28:44;39.75;;;15.10;;
74528;SDS011;63009;52.584;5.932;2022-12-18T03:31:14;34.65;;;15.05;;
74528;SDS011;63009;52.584;5.932;2022-12-18T03:36:22;34.22;;;14.15;;
74528;SDS011;63009;52.584;5.932;2022-12-18T03:38:48;37.83;;;14.30;;
74528;SDS011;63009;52.584;5.932;2022-12-18T03:41:29;38.03;;;14.73;;
74528;SDS011;63009;52.584;5.932;2022-12-18T03:47:06;42.10;;;13.77;;
74528;SDS011;63009;52.584;5.932;2022-12-18T03:54:43;35.22;;;11.45;;
74528;SDS011;63009;52.584;5.932;2022-12-18T03:57:13;33.05;;;13.52;;
74528;SDS011;63009;52.584;5.932;2022-12-18T03:59:45;40.83;;;14.68;;
74528;SDS011;63009;52.584;5.932;2022-12-18T04:02:16;28.70;;;13.32;;
74528;SDS011;63009;52.584;5.932;2022-12-18T04:04:42;37.53;;;13.77;;
74528;SDS011;63009;52.584;5.932;2022-12-18T04:07:09;39.40;;;14.95;;
74528;SDS011;63009;52.584;5.932;2022-12-18T04:09:35;32.40;;;13.55;;
74528;SDS011;63009;52.584;5.932;2022-12-18T04:12:01;32.22;;;13.05;;
74528;SDS011;63009;52.584;5.932;2022-12-18T04:14:27;34.20;;;13.25;;
74528;SDS011;63009;52.584;5.932;2022-12-18T04:16:52;27.20;;;12.13;;
74528;SDS011;63009;52.584;5.932;2022-12-18T04:19:18;29.00;;;12.10;;
74528;SDS011;63009;52.584;5.932;2022-12-18T04:21:43;27.85;;;13.25;;
74528;SDS011;63009;52.584;5.932;2022-12-18T04:24:08;27.93;;;12.73;;
74528;SDS011;63009;52.584;5.932;2022-12-18T04:26:33;35.17;;;14.23;;
74528;SDS011;63009;52.584;5.932;2022-12-18T04:28:59;29.95;;;12.65;;
74528;SDS011;63009;52.584;5.932;2022-12-18T04:31:24;33.38;;;13.43;;
74528;SDS011;63009;52.584;5.932;2022-12-18T04:33:50;31.85;;;12.15;;
74528;SDS011;63009;52.584;5.932;2022-12-18T04:36:15;34.70;;;12.33;;
74528;SDS011;63009;52.584;5.932;2022-12-18T04:38:40;34.07;;;12.00;;
74528;SDS011;63009;52.584;5.932;2022-12-18T04:41:06;33.22;;;13.88;;
74528;SDS011;63009;52.584;5.932;2022-12-18T04:43:31;32.10;;;12.53;;
74528;SDS011;63009;52.584;5.932;2022-12-18T04:46:01;25.63;;;11.23;;
74528;SDS011;63009;52.584;5.932;2022-12-18T04:48:27;34.10;;;13.20;;
74528;SDS011;63009;52.584;5.932;2022-12-18T04:50:52;32.13;;;12.87;;
74528;SDS011;63009;52.584;5.932;2022-12-18T04:53:18;32.43;;;11.23;;
74528;SDS011;63009;52.584;5.932;2022-12-18T04:55:43;35.53;;;13.83;;
74528;SDS011;63009;52.584;5.932;2022-12-18T04:58:08;31.37;;;12.90;;
74528;SDS011;63009;52.584;5.932;2022-12-18T05:00:34;30.67;;;11.25;;
74528;SDS011;63009;52.584;5.932;2022-12-18T05:03:00;25.80;;;11.87;;
74528;SDS011;63009;52.584;5.932;2022-12-18T05:05:26;27.58;;;11.45;;
74528;SDS011;63009;52.584;5.932;2022-12-18T05:07:52;31.00;;;13.03;;
74528;SDS011;63009;52.584;5.932;2022-12-18T05:10:17;29.30;;;13.10;;
74528;SDS011;63009;52.584;5.932;2022-12-18T05:12:42;32.60;;;12.50;;
74528;SDS011;63009;52.584;5.932;2022-12-18T05:15:23;31.45;;;12.85;;
74528;SDS011;63009;52.584;5.932;2022-12-18T05:17:51;37.30;;;14.20;;
74528;SDS011;63009;52.584;5.932;2022-12-18T05:20:17;30.63;;;12.33;;
74528;SDS011;63009;52.584;5.932;2022-12-18T05:22:43;25.92;;;11.45;;
74528;SDS011;63009;52.584;5.932;2022-12-18T05:25:08;35.67;;;11.60;;
74528;SDS011;63009;52.584;5.932;2022-12-18T05:27:34;26.77;;;11.23;;
74528;SDS011;63009;52.584;5.932;2022-12-18T05:29:59;30.20;;;12.27;;
74528;SDS011;63009;52.584;5.932;2022-12-18T05:32:24;31.10;;;12.23;;
74528;SDS011;63009;52.584;5.932;2022-12-18T05:34:49;26.17;;;11.17;;
74528;SDS011;63009;52.584;5.932;2022-12-18T05:37:15;30.90;;;10.77;;
74528;SDS011;63009;52.584;5.932;2022-12-18T05:39:40;28.77;;;11.32;;
74528;SDS011;63009;52.584;5.932;2022-12-18T05:42:05;31.30;;;10.93;;
74528;SDS011;63009;52.584;5.932;2022-12-18T05:44:30;26.37;;;11.10;;
74528;SDS011;63009;52.584;5.932;2022-12-18T05:46:56;29.13;;;11.53;;
74528;SDS011;63009;52.584;5.932;2022-12-18T05:49:21;23.43;;;9.87;;
74528;SDS011;63009;52.584;5.932;2022-12-18T05:51:46;24.87;;;10.57;;
74528;SDS011;63009;52.584;5.932;2022-12-18T05:54:11;21.33;;;9.73;;
74528;SDS011;63009;52.584;5.932;2022-12-18T05:56:37;25.87;;;11.27;;
74528;SDS011;63009;52.584;5.932;2022-12-18T05:59:02;30.07;;;11.40;;
74528;SDS011;63009;52.584;5.932;2022-12-18T06:01:27;31.17;;;11.50;;
74528;SDS011;63009;52.584;5.932;2022-12-18T06:03:53;23.77;;;10.95;;
74528;SDS011;63009;52.584;5.932;2022-12-18T06:06:20;25.65;;;11.25;;
74528;SDS011;63009;52.584;5.932;2022-12-18T06:08:50;28.27;;;11.85;;
74528;SDS011;63009;52.584;5.932;2022-12-18T06:11:17;22.58;;;10.80;;
74528;SDS011;63009;52.584;5.932;2022-12-18T06:13:49;27.08;;;10.75;;
74528;SDS011;63009;52.584;5.932;2022-12-18T06:16:16;26.48;;;11.52;;
74528;SDS011;63009;52.584;5.932;2022-12-18T06:18:41;22.15;;;9.55;;
74528;SDS011;63009;52.584;5.932;2022-12-18T06:21:07;22.93;;;10.40;;
74528;SDS011;63009;52.584;5.932;2022-12-18T06:23:32;23.25;;;9.75;;
74528;SDS011;63009;52.584;5.932;2022-12-18T06:25:57;25.53;;;10.30;;
74528;SDS011;63009;52.584;5.932;2022-12-18T06:28:23;20.90;;;9.15;;
74528;SDS011;63009;52.584;5.932;2022-12-18T06:30:49;26.92;;;8.90;;
74528;SDS011;63009;52.584;5.932;2022-12-18T06:33:15;25.00;;;10.75;;
74528;SDS011;63009;52.584;5.932;2022-12-18T06:35:41;22.90;;;10.65;;
74528;SDS011;63009;52.584;5.932;2022-12-18T06:38:06;21.23;;;9.77;;
74528;SDS011;63009;52.584;5.932;2022-12-18T06:40:32;21.50;;;9.77;;
74528;SDS011;63009;52.584;5.932;2022-12-18T06:42:57;22.37;;;9.33;;
74528;SDS011;63009;52.584;5.932;2022-12-18T06:45:22;26.83;;;9.75;;
74528;SDS011;63009;52.584;5.932;2022-12-18T06:47:48;25.33;;;9.13;;
74528;SDS011;63009;52.584;5.932;2022-12-18T06:50:13;25.80;;;10.23;;
74528;SDS011;63009;52.584;5.932;2022-12-18T06:52:38;25.77;;;10.80;;
74528;SDS011;63009;52.584;5.932;2022-12-18T06:55:05;23.15;;;9.68;;
74528;SDS011;63009;52.584;5.932;2022-12-18T06:59:59;25.37;;;11.00;;
74528;SDS011;63009;52.584;5.932;2022-12-18T07:02:25;26.00;;;11.75;;
74528;SDS011;63009;52.584;5.932;2022-12-18T07:04:50;23.13;;;11.40;;
74528;SDS011;63009;52.584;5.932;2022-12-18T07:07:15;25.20;;;11.43;;
74528;SDS011;63009;52.584;5.932;2022-12-18T07:09:41;27.98;;;11.40;;
74528;SDS011;63009;52.584;5.932;2022-12-18T07:12:06;23.53;;;10.93;;
74528;SDS011;63009;52.584;5.932;2022-12-18T07:14:32;25.77;;;11.90;;
74528;SDS011;63009;52.584;5.932;2022-12-18T07:16:58;24.73;;;10.90;;
74528;SDS011;63009;52.584;5.932;2022-12-18T07:19:23;28.07;;;9.63;;
74528;SDS011;63009;52.584;5.932;2022-12-18T07:21:49;23.33;;;9.77;;
74528;SDS011;63009;52.584;5.932;2022-12-18T07:24:15;23.35;;;11.77;;
74528;SDS011;63009;52.584;5.932;2022-12-18T07:26:40;28.27;;;11.52;;
74528;SDS011;63009;52.584;5.932;2022-12-18T07:29:06;25.20;;;10.93;;
74528;SDS011;63009;52.584;5.932;2022-12-18T07:31:31;26.23;;;10.57;;
74528;SDS011;63009;52.584;5.932;2022-12-18T07:33:56;28.17;;;11.47;;
74528;SDS011;63009;52.584;5.932;2022-12-18T07:36:25;29.70;;;12.93;;
74528;SDS011;63009;52.584;5.932;2022-12-18T07:38:50;26.67;;;12.38;;
74528;SDS011;63009;52.584;5.932;2022-12-18T07:41:17;25.85;;;10.75;;
74528;SDS011;63009;52.584;5.932;2022-12-18T07:43:43;25.40;;;11.10;;
74528;SDS011;63009;52.584;5.932;2022-12-18T07:46:09;22.55;;;10.35;;
74528;SDS011;63009;52.584;5.932;2022-12-18T07:48:35;21.58;;;11.02;;
74528;SDS011;63009;52.584;5.932;2022-12-18T07:51:01;26.13;;;10.70;;
74528;SDS011;63009;52.584;5.932;2022-12-18T07:53:29;22.52;;;10.02;;
74528;SDS011;63009;52.584;5.932;2022-12-18T07:55:57;26.48;;;9.00;;
74528;SDS011;63009;52.584;5.932;2022-12-18T07:58:28;21.92;;;10.50;;
74528;SDS011;63009;52.584;5.932;2022-12-18T08:00:54;25.73;;;9.05;;
74528;SDS011;63009;52.584;5.932;2022-12-18T08:03:26;22.25;;;9.57;;
74528;SDS011;63009;52.584;5.932;2022-12-18T08:05:52;22.07;;;9.93;;
74528;SDS011;63009;52.584;5.932;2022-12-18T08:08:17;27.83;;;11.13;;
74528;SDS011;63009;52.584;5.932;2022-12-18T08:10:42;23.90;;;11.47;;
74528;SDS011;63009;52.584;5.932;2022-12-18T08:13:07;22.73;;;10.67;;
74528;SDS011;63009;52.584;5.932;2022-12-18T08:15:33;25.30;;;10.73;;
74528;SDS011;63009;52.584;5.932;2022-12-18T08:17:58;24.33;;;12.20;;
74528;SDS011;63009;52.584;5.932;2022-12-18T08:20:23;31.17;;;12.57;;
74528;SDS011;63009;52.584;5.932;2022-12-18T08:22:48;32.50;;;14.90;;
74528;SDS011;63009;52.584;5.932;2022-12-18T08:25:14;29.07;;;12.43;;
74528;SDS011;63009;52.584;5.932;2022-12-18T08:27:39;22.17;;;10.57;;
74528;SDS011;63009;52.584;5.932;2022-12-18T08:30:04;28.03;;;10.70;;
74528;SDS011;63009;52.584;5.932;2022-12-18T08:32:31;19.67;;;9.15;;
74528;SDS011;63009;52.584;5.932;2022-12-18T08:34:57;21.70;;;10.25;;
74528;SDS011;63009;52.584;5.932;2022-12-18T08:37:23;21.77;;;10.35;;
74528;SDS011;63009;52.584;5.932;2022-12-18T08:39:48;21.70;;;9.73;;
74528;SDS011;63009;52.584;5.932;2022-12-18T08:42:14;26.70;;;10.25;;
74528;SDS011;63009;52.584;5.932;2022-12-18T08:44:57;19.83;;;8.80;;
74528;SDS011;63009;52.584;5.932;2022-12-18T08:47:23;20.95;;;9.38;;
74528;SDS011;63009;52.584;5.932;2022-12-18T08:49:48;20.67;;;9.23;;
74528;SDS011;63009;52.584;5.932;2022-12-18T08:52:16;19.90;;;9.90;;
74528;SDS011;63009;52.584;5.932;2022-12-18T08:54:41;22.13;;;8.93;;
74528;SDS011;63009;52.584;5.932;2022-12-18T08:57:07;21.65;;;9.70;;
74528;SDS011;63009;52.584;5.932;2022-12-18T08:59:32;20.17;;;8.77;;
74528;SDS011;63009;52.584;5.932;2022-12-18T09:01:57;20.53;;;8.47;;
74528;SDS011;63009;52.584;5.932;2022-12-18T09:04:23;23.40;;;9.40;;
74528;SDS011;63009;52.584;5.932;2022-12-18T09:06:48;23.30;;;8.27;;
74528;SDS011;63009;52.584;5.932;2022-12-18T09:09:13;20.95;;;7.82;;
74528;SDS011;63009;52.584;5.932;2022-12-18T09:11:39;18.38;;;8.90;;
74528;SDS011;63009;52.584;5.932;2022-12-18T09:14:04;23.92;;;9.15;;
74528;SDS011;63009;52.584;5.932;2022-12-18T09:16:30;19.02;;;8.52;;
74528;SDS011;63009;52.584;5.932;2022-12-18T09:18:57;21.08;;;8.43;;
74528;SDS011;63009;52.584;5.932;2022-12-18T09:21:27;19.58;;;9.32;;
74528;SDS011;63009;52.584;5.932;2022-12-18T09:23:57;19.92;;;8.68;;
74528;SDS011;63009;52.584;5.932;2022-12-18T09:26:23;19.23;;;8.50;;
74528;SDS011;63009;52.584;5.932;2022-12-18T09:28:49;22.98;;;9.63;;
74528;SDS011;63009;52.584;5.932;2022-12-18T09:31:15;17.02;;;8.02;;
74528;SDS011;63009;52.584;5.932;2022-12-18T09:33:41;17.30;;;7.07;;
74528;SDS011;63009;52.584;5.932;2022-12-18T09:36:07;23.88;;;8.75;;
74528;SDS011;63009;52.584;5.932;2022-12-18T09:38:34;20.42;;;7.63;;
74528;SDS011;63009;52.584;5.932;2022-12-18T09:41:03;15.82;;;7.15;;
74528;SDS011;63009;52.584;5.932;2022-12-18T09:43:42;19.25;;;8.68;;
74528;SDS011;63009;52.584;5.932;2022-12-18T09:46:15;15.40;;;7.05;;
74528;SDS011;63009;52.584;5.932;2022-12-18T09:48:45;16.75;;;7.65;;
74528;SDS011;63009;52.584;5.932;2022-12-18T09:51:26;15.82;;;7.15;;
74528;SDS011;63009;52.584;5.932;2022-12-18T09:54:01;36.90;;;14.18;;
74528;SDS011;63009;52.584;5.932;2022-12-18T09:56:48;23.15;;;9.90;;
74528;SDS011;63009;52.584;5.932;2022-12-18T09:59:16;14.32;;;6.47;;
74528;SDS011;63009;52.584;5.932;2022-12-18T10:01:46;19.35;;;7.75;;
74528;SDS011;63009;52.584;5.932;2022-12-18T10:04:11;15.53;;;7.43;;
74528;SDS011;63009;52.584;5.932;2022-12-18T10:22:55;17.58;;;8.18;;
74528;SDS011;63009;52.584;5.932;2022-12-18T10:25:38;22.70;;;10.40;;
74528;SDS011;63009;52.584;5.932;2022-12-18T10:28:14;24.75;;;11.23;;
74528;SDS011;63009;52.584;5.932;2022-12-18T10:30:41;17.02;;;8.07;;
74528;SDS011;63009;52.584;5.932;2022-12-18T10:33:10;16.20;;;7.22;;
74528;SDS011;63009;52.584;5.932;2022-12-18T10:35:38;16.67;;;7.43;;
74528;SDS011;63009;52.584;5.932;2022-12-18T10:41:03;13.95;;;6.63;;
74528;SDS011;63009;52.584;5.932;2022-12-18T10:43:30;16.55;;;8.13;;
74528;SDS011;63009;52.584;5.932;2022-12-18T10:46:11;14.65;;;6.45;;
74528;SDS011;63009;52.584;5.932;2022-12-18T10:54:18;15.32;;;6.38;;
74528;SDS011;63009;52.584;5.932;2022-12-18T10:56:46;15.73;;;6.72;;
74528;SDS011;63009;52.584;5.932;2022-12-18T10:59:16;13.55;;;6.20;;
74528;SDS011;63009;52.584;5.932;2022-12-18T11:04:27;15.73;;;6.85;;
74528;SDS011;63009;52.584;5.932;2022-12-18T11:09:26;14.50;;;7.47;;
74528;SDS011;63009;52.584;5.932;2022-12-18T11:11:54;16.15;;;8.35;;
74528;SDS011;63009;52.584;5.932;2022-12-18T11:16:51;14.02;;;6.72;;
74528;SDS011;63009;52.584;5.932;2022-12-18T11:19:20;16.48;;;7.15;;
74528;SDS011;63009;52.584;5.932;2022-12-18T11:22:00;14.52;;;6.68;;
74528;SDS011;63009;52.584;5.932;2022-12-18T11:24:37;17.48;;;7.55;;
74528;SDS011;63009;52.584;5.932;2022-12-18T11:27:06;15.80;;;7.72;;
74528;SDS011;63009;52.584;5.932;2022-12-18T11:29:43;20.52;;;8.75;;
74528;SDS011;63009;52.584;5.932;2022-12-18T11:34:39;13.45;;;5.97;;
74528;SDS011;63009;52.584;5.932;2022-12-18T11:37:09;13.27;;;6.30;;
74528;SDS011;63009;52.584;5.932;2022-12-18T11:39:40;17.27;;;9.00;;
74528;SDS011;63009;52.584;5.932;2022-12-18T11:42:27;15.63;;;9.10;;
74528;SDS011;63009;52.584;5.932;2022-12-18T11:52:58;14.25;;;7.03;;
74528;SDS011;63009;52.584;5.932;2022-12-18T12:24:26;12.35;;;5.75;;
74528;SDS011;63009;52.584;5.932;2022-12-18T12:35:19;13.73;;;6.65;;
74528;SDS011;63009;52.584;5.932;2022-12-18T12:37:53;14.32;;;7.60;;
74528;SDS011;63009;52.584;5.932;2022-12-18T12:40:27;12.55;;;6.63;;
74528;SDS011;63009;52.584;5.932;2022-12-18T12:46:12;12.25;;;5.80;;
74528;SDS011;63009;52.584;5.932;2022-12-18T12:48:56;13.13;;;6.05;;
74528;SDS011;63009;52.584;5.932;2022-12-18T12:51:33;10.65;;;5.35;;
74528;SDS011;63009;52.584;5.932;2022-12-18T12:54:02;13.95;;;6.13;;
74528;SDS011;63009;52.584;5.932;2022-12-18T12:56:54;13.45;;;5.55;;
74528;SDS011;63009;52.584;5.932;2022-12-18T12:59:37;13.77;;;5.40;;
74528;SDS011;63009;52.584;5.932;2022-12-18T13:02:28;13.18;;;5.82;;
74528;SDS011;63009;52.584;5.932;2022-12-18T13:05:04;11.70;;;5.65;;
74528;SDS011;63009;52.584;5.932;2022-12-18T13:07:41;11.95;;;5.35;;
74528;SDS011;63009;52.584;5.932;2022-12-18T13:15:30;13.93;;;6.25;;
74528;SDS011;63009;52.584;5.932;2022-12-18T13:25:48;13.25;;;5.80;;
74528;SDS011;63009;52.584;5.932;2022-12-18T13:28:15;15.52;;;7.47;;
74528;SDS011;63009;52.584;5.932;2022-12-18T13:30:43;11.75;;;5.85;;
74528;SDS011;63009;52.584;5.932;2022-12-18T13:35:39;10.68;;;5.63;;
74528;SDS011;63009;52.584;5.932;2022-12-18T13:38:25;13.32;;;6.00;;
74528;SDS011;63009;52.584;5.932;2022-12-18T13:46:03;12.47;;;5.93;;
74528;SDS011;63009;52.584;5.932;2022-12-18T13:48:29;14.20;;;5.55;;
74528;SDS011;63009;52.584;5.932;2022-12-18T13:51:02;12.85;;;6.60;;
74528;SDS011;63009;52.584;5.932;2022-12-18T13:53:32;14.50;;;6.13;;
74528;SDS011;63009;52.584;5.932;2022-12-18T13:56:07;14.10;;;7.13;;
74528;SDS011;63009;52.584;5.932;2022-12-18T13:58:32;14.25;;;6.72;;
74528;SDS011;63009;52.584;5.932;2022-12-18T14:00:58;13.32;;;6.75;;
74528;SDS011;63009;52.584;5.932;2022-12-18T14:03:25;13.63;;;6.28;;
74528;SDS011;63009;52.584;5.932;2022-12-18T14:08:20;12.80;;;6.28;;
74528;SDS011;63009;52.584;5.932;2022-12-18T14:10:46;11.45;;;5.65;;
74528;SDS011;63009;52.584;5.932;2022-12-18T14:13:19;21.88;;;10.52;;
74528;SDS011;63009;52.584;5.932;2022-12-18T14:15:46;17.60;;;8.88;;
74528;SDS011;63009;52.584;5.932;2022-12-18T14:21:17;12.55;;;6.22;;
74528;SDS011;63009;52.584;5.932;2022-12-18T14:23:45;13.75;;;5.50;;
74528;SDS011;63009;52.584;5.932;2022-12-18T14:26:31;12.27;;;5.95;;
74528;SDS011;63009;52.584;5.932;2022-12-18T14:28:58;11.85;;;5.60;;
74528;SDS011;63009;52.584;5.932;2022-12-18T14:31:27;12.85;;;6.72;;
74528;SDS011;63009;52.584;5.932;2022-12-18T14:33:55;13.30;;;5.82;;
74528;SDS011;63009;52.584;5.932;2022-12-18T14:36:21;12.57;;;6.25;;
74528;SDS011;63009;52.584;5.932;2022-12-18T14:38:53;12.02;;;5.63;;
74528;SDS011;63009;52.584;5.932;2022-12-18T14:41:19;14.23;;;6.32;;
74528;SDS011;63009;52.584;5.932;2022-12-18T14:43:47;14.88;;;6.95;;
74528;SDS011;63009;52.584;5.932;2022-12-18T14:46:32;12.68;;;5.30;;
74528;SDS011;63009;52.584;5.932;2022-12-18T14:49:01;13.27;;;6.13;;
74528;SDS011;63009;52.584;5.932;2022-12-18T14:51:42;15.75;;;6.25;;
74528;SDS011;63009;52.584;5.932;2022-12-18T14:54:15;11.25;;;5.25;;
74528;SDS011;63009;52.584;5.932;2022-12-18T14:56:44;14.68;;;5.32;;
74528;SDS011;63009;52.584;5.932;2022-12-18T14:59:21;13.90;;;5.85;;
74528;SDS011;63009;52.584;5.932;2022-12-18T15:04:29;12.65;;;5.82;;
74528;SDS011;63009;52.584;5.932;2022-12-18T15:07:04;12.73;;;5.72;;
74528;SDS011;63009;52.584;5.932;2022-12-18T15:09:42;12.77;;;5.95;;
74528;SDS011;63009;52.584;5.932;2022-12-18T15:12:24;12.38;;;5.28;;
74528;SDS011;63009;52.584;5.932;2022-12-18T15:14:58;11.63;;;5.45;;
74528;SDS011;63009;52.584;5.932;2022-12-18T15:17:23;14.53;;;6.13;;
74528;SDS011;63009;52.584;5.932;2022-12-18T15:19:53;13.15;;;6.18;;
74528;SDS011;63009;52.584;5.932;2022-12-18T15:22:34;11.40;;;5.10;;
74528;SDS011;63009;52.584;5.932;2022-12-18T15:25:01;12.82;;;6.00;;
74528;SDS011;63009;52.584;5.932;2022-12-18T15:27:30;10.05;;;4.50;;
74528;SDS011;63009;52.584;5.932;2022-12-18T15:32:33;13.70;;;6.15;;
74528;SDS011;63009;52.584;5.932;2022-12-18T15:35:07;13.15;;;5.78;;
74528;SDS011;63009;52.584;5.932;2022-12-18T15:37:39;14.00;;;5.60;;
74528;SDS011;63009;52.584;5.932;2022-12-18T15:40:05;12.85;;;5.85;;
74528;SDS011;63009;52.584;5.932;2022-12-18T15:42:32;12.38;;;5.82;;
74528;SDS011;63009;52.584;5.932;2022-12-18T15:45:16;12.88;;;6.55;;
74528;SDS011;63009;52.584;5.932;2022-12-18T15:47:42;14.20;;;4.90;;
74528;SDS011;63009;52.584;5.932;2022-12-18T15:50:07;12.13;;;5.32;;
74528;SDS011;63009;52.584;5.932;2022-12-18T15:52:35;12.65;;;5.60;;
74528;SDS011;63009;52.584;5.932;2022-12-18T15:55:08;16.08;;;7.43;;
74528;SDS011;63009;52.584;5.932;2022-12-18T15:57:56;14.40;;;6.25;;
74528;SDS011;63009;52.584;5.932;2022-12-18T16:00:22;12.23;;;5.80;;
74528;SDS011;63009;52.584;5.932;2022-12-18T16:02:47;12.85;;;5.95;;
74528;SDS011;63009;52.584;5.932;2022-12-18T16:05:13;12.93;;;6.10;;
74528;SDS011;63009;52.584;5.932;2022-12-18T16:07:40;26.58;;;13.23;;
74528;SDS011;63009;52.584;5.932;2022-12-18T16:10:05;20.77;;;10.23;;
74528;SDS011;63009;52.584;5.932;2022-12-18T16:12:31;16.77;;;7.85;;
74528;SDS011;63009;52.584;5.932;2022-12-18T16:14:56;15.25;;;7.68;;
74528;SDS011;63009;52.584;5.932;2022-12-18T16:17:22;18.50;;;9.05;;
74528;SDS011;63009;52.584;5.932;2022-12-18T16:19:47;16.93;;;9.80;;
74528;SDS011;63009;52.584;5.932;2022-12-18T16:24:46;15.23;;;7.85;;
74528;SDS011;63009;52.584;5.932;2022-12-18T16:27:11;16.98;;;9.15;;
74528;SDS011;63009;52.584;5.932;2022-12-18T16:29:36;12.37;;;5.83;;
74528;SDS011;63009;52.584;5.932;2022-12-18T16:32:02;18.60;;;7.13;;
74528;SDS011;63009;52.584;5.932;2022-12-18T16:34:33;15.18;;;8.15;;
74528;SDS011;63009;52.584;5.932;2022-12-18T16:37:00;13.40;;;6.32;;
74528;SDS011;63009;52.584;5.932;2022-12-18T16:39:27;13.68;;;7.28;;
74528;SDS011;63009;52.584;5.932;2022-12-18T16:41:53;13.43;;;5.88;;
74528;SDS011;63009;52.584;5.932;2022-12-18T16:44:18;14.43;;;7.38;;
74528;SDS011;63009;52.584;5.932;2022-12-18T16:46:44;12.98;;;6.38;;
74528;SDS011;63009;52.584;5.932;2022-12-18T16:49:10;16.05;;;7.15;;
74528;SDS011;63009;52.584;5.932;2022-12-18T16:51:37;18.48;;;10.68;;
74528;SDS011;63009;52.584;5.932;2022-12-18T16:54:03;21.30;;;10.85;;
74528;SDS011;63009;52.584;5.932;2022-12-18T16:56:28;16.05;;;8.80;;
74528;SDS011;63009;52.584;5.932;2022-12-18T16:58:56;15.52;;;6.55;;
74528;SDS011;63009;52.584;5.932;2022-12-18T17:01:24;15.43;;;7.18;;